Time;durP1;ratioP1;P1;durP2;ratioP2;P2;SDS_P1;SDS_P2;PMS_P1;PMS_P2;Temp;Humidity;BMP_temperature;BMP_pressure;BME280_temperature;BME280_humidity;BME280_pressure;Samples;Min_cycle;Max_cycle;Signal;HPM_P1;HPM_P2
2021/12/03 00:01:31;;;;;;;6.57;3.00;;;0.00;99.90;;;;;;5009942;28;20415;-64
2021/12/03 00:03:57;;;;;;;4.90;2.95;;;0.00;99.90;;;;;;5030839;28;20514;-65
2021/12/03 00:06:23;;;;;;;7.35;2.70;;;0.00;99.90;;;;;;5003457;28;20183;-64
2021/12/03 00:08:48;;;;;;;7.10;3.28;;;0.00;99.90;;;;;;5021607;28;20067;-64
2021/12/03 00:11:15;;;;;;;4.88;3.20;;;0.00;99.90;;;;;;5001389;28;20124;-65
2021/12/03 00:13:42;;;;;;;5.70;3.13;;;0.00;99.90;;;;;;5042474;28;20045;-64
2021/12/03 00:16:08;;;;;;;10.38;3.20;;;0.00;99.90;;;;;;5033021;28;20567;-64
2021/12/03 00:18:34;;;;;;;9.00;3.15;;;0.00;99.90;;;;;;5031444;28;20033;-64
2021/12/03 00:21:04;;;;;;;6.63;3.20;;;0.00;99.90;;;;;;5050423;28;20083;-64
2021/12/03 00:23:31;;;;;;;6.97;3.05;;;0.10;99.90;;;;;;5030708;28;20136;-64
2021/12/03 00:25:59;;;;;;;8.23;3.33;;;0.10;99.90;;;;;;5032294;28;20838;-63
2021/12/03 00:28:25;;;;;;;7.40;3.58;;;0.00;99.90;;;;;;5047960;28;20041;-64
2021/12/03 00:30:51;;;;;;;6.15;3.05;;;0.10;99.90;;;;;;5031088;28;20037;-63
2021/12/03 00:33:16;;;;;;;7.25;3.22;;;0.10;99.90;;;;;;5033884;28;20140;-63
2021/12/03 00:35:42;;;;;;;5.22;3.30;;;0.10;99.90;;;;;;5046423;28;20364;-63
2021/12/03 00:38:07;;;;;;;6.50;3.08;;;0.10;99.90;;;;;;5016801;28;20367;-64
2021/12/03 00:40:37;;;;;;;7.30;3.40;;;0.20;99.90;;;;;;5031798;28;20032;-65
2021/12/03 00:43:03;;;;;;;7.18;3.38;;;0.20;99.90;;;;;;5049354;28;20459;-64
2021/12/03 00:45:31;;;;;;;8.45;3.22;;;0.30;99.90;;;;;;5051489;28;20033;-65
2021/12/03 00:47:57;;;;;;;9.13;3.63;;;0.30;99.90;;;;;;5051187;28;20045;-64
2021/12/03 00:50:24;;;;;;;8.15;3.88;;;0.30;99.90;;;;;;5026563;28;20037;-65
2021/12/03 00:52:51;;;;;;;11.60;4.35;;;0.30;99.90;;;;;;5031900;28;20044;-64
2021/12/03 00:55:18;;;;;;;9.60;4.25;;;0.40;99.90;;;;;;5032336;28;20033;-64
2021/12/03 00:57:43;;;;;;;9.63;4.95;;;0.40;99.90;;;;;;5047520;28;20349;-64
2021/12/03 01:00:13;;;;;;;11.48;5.88;;;0.40;99.90;;;;;;5028077;28;20068;-64
2021/12/03 01:02:39;;;;;;;13.20;5.60;;;0.40;99.90;;;;;;5051025;28;20052;-63
2021/12/03 01:05:05;;;;;;;12.05;6.50;;;0.40;99.90;;;;;;5032577;28;20036;-64
2021/12/03 01:07:31;;;;;;;13.02;6.40;;;0.50;99.90;;;;;;5049879;28;20424;-63
2021/12/03 01:09:57;;;;;;;16.50;6.57;;;0.40;99.90;;;;;;5048542;28;20044;-65
2021/12/03 01:12:23;;;;;;;11.93;6.03;;;0.50;99.90;;;;;;5030639;28;20044;-64
2021/12/03 01:14:48;;;;;;;14.07;6.53;;;0.50;99.90;;;;;;5015033;28;20037;-64
2021/12/03 01:17:15;;;;;;;19.13;7.20;;;0.50;99.90;;;;;;5050181;28;20439;-64
2021/12/03 01:19:40;;;;;;;11.75;6.15;;;0.50;99.90;;;;;;5049973;28;20064;-65
2021/12/03 01:22:06;;;;;;;15.60;6.80;;;0.50;99.90;;;;;;5031252;28;20413;-65
2021/12/03 01:24:32;;;;;;;20.33;7.55;;;0.50;99.90;;;;;;5015061;28;20041;-64
2021/12/03 01:26:58;;;;;;;14.65;7.75;;;0.60;99.90;;;;;;5015632;28;20479;-64
2021/12/03 01:29:24;;;;;;;16.60;7.47;;;0.50;99.90;;;;;;5030193;28;20037;-64
2021/12/03 01:31:51;;;;;;;17.67;6.78;;;0.50;99.90;;;;;;5049357;28;20036;-64
2021/12/03 01:34:17;;;;;;;15.23;7.47;;;0.50;99.90;;;;;;5031961;28;20156;-65
2021/12/03 01:36:43;;;;;;;19.15;6.95;;;0.50;99.90;;;;;;5031320;28;20057;-65
2021/12/03 01:39:11;;;;;;;14.63;7.20;;;0.60;99.90;;;;;;5032329;28;20519;-64
2021/12/03 01:41:37;;;;;;;15.52;6.70;;;0.60;99.90;;;;;;5048336;28;20044;-64
2021/12/03 01:44:03;;;;;;;15.27;7.70;;;0.50;99.90;;;;;;5031307;28;20128;-64
2021/12/03 01:46:31;;;;;;;17.98;6.18;;;0.60;99.90;;;;;;5047507;28;20041;-64
2021/12/03 01:48:56;;;;;;;15.40;7.10;;;0.50;99.90;;;;;;5047947;28;20044;-64
2021/12/03 01:51:23;;;;;;;12.98;6.35;;;0.60;99.90;;;;;;5048944;28;20436;-64
2021/12/03 01:53:49;;;;;;;10.95;6.30;;;0.60;99.90;;;;;;5031782;28;20076;-65
2021/12/03 01:56:16;;;;;;;12.88;6.65;;;0.60;99.90;;;;;;5038381;28;20171;-65
2021/12/03 01:58:44;;;;;;;14.75;7.00;;;0.60;99.90;;;;;;5028324;28;20144;-65
2021/12/03 02:01:13;;;;;;;12.52;6.75;;;0.60;99.90;;;;;;5024424;28;20040;-64
2021/12/03 02:03:41;;;;;;;14.77;6.05;;;0.60;99.90;;;;;;5030539;28;20049;-65
2021/12/03 02:06:09;;;;;;;20.45;7.28;;;0.60;99.90;;;;;;5049988;28;20495;-65
2021/12/03 02:08:35;;;;;;;15.82;7.97;;;0.60;99.90;;;;;;5029616;28;20199;-64
2021/12/03 02:11:04;;;;;;;18.27;7.95;;;0.60;99.90;;;;;;5029998;28;20045;-65
2021/12/03 02:13:30;;;;;;;17.35;8.27;;;0.60;99.90;;;;;;5041148;28;20041;-64
2021/12/03 02:15:56;;;;;;;14.13;7.72;;;0.70;99.90;;;;;;5030399;28;20427;-65
2021/12/03 02:18:22;;;;;;;15.10;9.32;;;0.70;99.90;;;;;;5029150;28;20044;-65
2021/12/03 02:20:50;;;;;;;17.98;9.48;;;0.70;99.90;;;;;;5032419;28;20190;-65
2021/12/03 02:23:17;;;;;;;18.83;9.85;;;0.70;99.90;;;;;;5023261;28;20037;-65
2021/12/03 02:25:44;;;;;;;22.20;11.10;;;0.70;99.90;;;;;;5045506;28;20040;-66
2021/12/03 02:28:10;;;;;;;19.27;10.23;;;0.80;99.90;;;;;;5025255;28;20037;-64
2021/12/03 02:30:37;;;;;;;23.88;12.52;;;0.80;99.90;;;;;;5028336;28;20121;-65
2021/12/03 02:33:03;;;;;;;24.30;13.57;;;0.80;99.90;;;;;;5048677;28;20338;-65
2021/12/03 02:35:29;;;;;;;25.08;13.45;;;0.80;99.90;;;;;;5048214;28;20041;-64
2021/12/03 02:37:55;;;;;;;28.50;14.05;;;0.90;99.90;;;;;;5028381;28;20094;-65
2021/12/03 02:40:22;;;;;;;29.65;16.75;;;0.90;99.90;;;;;;5049202;28;20024;-65
2021/12/03 02:42:49;;;;;;;31.88;15.70;;;0.90;99.90;;;;;;5027514;28;20036;-66
2021/12/03 02:45:16;;;;;;;28.02;15.63;;;0.90;99.90;;;;;;5029759;28;20041;-65
2021/12/03 02:47:42;;;;;;;27.48;15.93;;;0.90;99.90;;;;;;5030680;28;20041;-65
2021/12/03 02:50:10;;;;;;;32.70;16.95;;;0.90;99.90;;;;;;5049354;28;20097;-65
2021/12/03 02:52:35;;;;;;;31.55;16.10;;;0.90;99.90;;;;;;5027593;28;20048;-65
2021/12/03 02:55:02;;;;;;;34.90;17.60;;;0.90;99.90;;;;;;5047082;28;20060;-65
2021/12/03 02:57:27;;;;;;;31.35;16.10;;;0.90;99.90;;;;;;5040879;28;20053;-65
2021/12/03 02:59:53;;;;;;;30.85;16.73;;;1.00;99.90;;;;;;5022963;28;20053;-65
2021/12/03 03:02:19;;;;;;;28.58;17.00;;;0.90;99.90;;;;;;5047933;28;20086;-65
2021/12/03 03:04:44;;;;;;;28.92;16.35;;;1.00;99.90;;;;;;5048161;28;20140;-65
2021/12/03 03:07:11;;;;;;;30.02;16.23;;;0.90;99.90;;;;;;5048203;28;20532;-65
2021/12/03 03:09:36;;;;;;;29.55;17.52;;;0.90;99.90;;;;;;5028181;28;20060;-65
2021/12/03 03:12:02;;;;;;;29.45;16.17;;;0.90;99.90;;;;;;5024265;28;20429;-65
2021/12/03 03:14:28;;;;;;;29.92;16.80;;;0.90;99.90;;;;;;5025041;28;20473;-65
2021/12/03 03:16:54;;;;;;;28.65;16.65;;;0.90;99.90;;;;;;5047345;28;20040;-65
2021/12/03 03:19:23;;;;;;;29.13;16.55;;;1.00;99.90;;;;;;5029805;28;20040;-66
2021/12/03 03:21:49;;;;;;;27.48;15.98;;;0.90;99.90;;;;;;5022867;28;20117;-65
2021/12/03 03:24:16;;;;;;;27.95;16.13;;;0.90;99.90;;;;;;5031045;28;20045;-65
2021/12/03 03:26:45;;;;;;;29.30;17.02;;;0.90;99.90;;;;;;5045112;28;20033;-65
2021/12/03 03:29:16;;;;;;;31.35;17.98;;;0.90;99.90;;;;;;5026113;28;20167;-65
2021/12/03 03:31:42;;;;;;;32.33;16.63;;;0.90;99.90;;;;;;5028787;28;20032;-65
2021/12/03 03:34:09;;;;;;;27.20;16.98;;;0.80;99.90;;;;;;5029467;28;20040;-65
2021/12/03 03:36:39;;;;;;;31.67;18.02;;;0.80;99.90;;;;;;5025432;28;20491;-65
2021/12/03 03:39:07;;;;;;;33.00;17.83;;;0.80;99.90;;;;;;5034830;28;20060;-65
2021/12/03 03:41:33;;;;;;;27.85;16.95;;;0.80;99.90;;;;;;5049121;28;20059;-65
2021/12/03 03:43:59;;;;;;;25.70;16.83;;;0.80;99.90;;;;;;5034193;28;20551;-65
2021/12/03 03:46:25;;;;;;;31.70;17.33;;;0.70;99.90;;;;;;5031811;28;20426;-65
2021/12/03 03:48:50;;;;;;;28.67;17.60;;;0.70;99.90;;;;;;5016818;28;20071;-65
2021/12/03 03:51:16;;;;;;;31.48;18.08;;;0.80;99.90;;;;;;5033442;28;20044;-66
2021/12/03 03:53:42;;;;;;;29.08;18.10;;;0.80;99.90;;;;;;5016815;28;20090;-65
2021/12/03 03:56:09;;;;;;;29.27;17.30;;;0.70;99.90;;;;;;5050255;28;20045;-65
2021/12/03 03:58:37;;;;;;;29.92;17.98;;;0.70;99.90;;;;;;5025781;28;20081;-66
2021/12/03 04:01:04;;;;;;;32.33;18.20;;;0.70;99.90;;;;;;5031662;28;20076;-65
2021/12/03 04:03:30;;;;;;;31.13;17.17;;;0.70;99.90;;;;;;5050860;28;20045;-65
2021/12/03 04:05:56;;;;;;;29.33;18.05;;;0.70;99.90;;;;;;5033005;28;20037;-65
2021/12/03 04:08:22;;;;;;;28.95;17.80;;;0.70;99.90;;;;;;5031340;28;20052;-65
2021/12/03 04:10:48;;;;;;;34.33;17.40;;;0.70;99.90;;;;;;5028268;28;20075;-66
2021/12/03 04:13:14;;;;;;;27.33;16.55;;;0.60;99.90;;;;;;5031158;28;20072;-65
2021/12/03 04:15:42;;;;;;;30.20;18.75;;;0.60;99.90;;;;;;5032554;28;20055;-65
2021/12/03 04:18:07;;;;;;;26.77;17.05;;;0.60;99.90;;;;;;5033266;28;20086;-65
2021/12/03 04:20:33;;;;;;;29.92;19.17;;;0.60;99.90;;;;;;5016248;28;20425;-66
2021/12/03 04:22:59;;;;;;;30.50;17.60;;;0.60;99.90;;;;;;5012249;28;20574;-65
2021/12/03 04:25:24;;;;;;;29.60;17.83;;;0.60;99.90;;;;;;5032673;28;20444;-65
2021/12/03 04:27:50;;;;;;;32.53;17.65;;;0.60;99.90;;;;;;5028590;28;20048;-65
2021/12/03 04:30:23;;;;;;;31.10;18.33;;;0.50;99.90;;;;;;5047515;28;20033;-65
2021/12/03 04:32:50;;;;;;;32.95;17.98;;;0.50;99.90;;;;;;5032300;28;20060;-65
2021/12/03 04:35:16;;;;;;;31.10;17.75;;;0.50;99.90;;;;;;5031568;28;20079;-66
2021/12/03 04:37:41;;;;;;;32.65;17.92;;;0.60;99.90;;;;;;5030359;28;20132;-65
2021/12/03 04:40:10;;;;;;;32.97;18.63;;;0.60;99.90;;;;;;5033434;28;20049;-65
2021/12/03 04:42:36;;;;;;;28.00;17.35;;;0.60;99.90;;;;;;5048491;28;20037;-65
2021/12/03 04:45:03;;;;;;;30.90;17.75;;;0.50;99.90;;;;;;5033485;28;20051;-65
2021/12/03 04:47:29;;;;;;;31.15;18.40;;;0.50;99.90;;;;;;5046969;28;20047;-66
2021/12/03 04:49:54;;;;;;;29.17;17.40;;;0.50;99.90;;;;;;5049293;28;20368;-65
2021/12/03 04:52:21;;;;;;;32.38;17.92;;;0.50;99.90;;;;;;5045676;28;20043;-65
2021/12/03 04:54:46;;;;;;;31.23;17.85;;;0.50;99.90;;;;;;5032474;28;20143;-64
2021/12/03 04:57:12;;;;;;;31.95;17.60;;;0.50;99.90;;;;;;5025918;28;20057;-64
2021/12/03 04:59:38;;;;;;;30.52;18.15;;;0.50;99.90;;;;;;5032871;28;20084;-65
2021/12/03 05:02:03;;;;;;;29.63;17.52;;;0.40;99.90;;;;;;5047785;28;20059;-65
2021/12/03 05:04:36;;;;;;;29.02;17.55;;;0.40;99.90;;;;;;5049028;28;20417;-65
2021/12/03 05:09:35;;;;;;;33.85;18.00;;;0.40;99.90;;;;;;5050314;28;20139;-65
2021/12/03 05:12:02;;;;;;;29.38;18.02;;;0.40;99.90;;;;;;5028883;28;20033;-65
2021/12/03 05:14:28;;;;;;;34.25;19.05;;;0.40;99.90;;;;;;5033276;28;20449;-65
2021/12/03 05:16:55;;;;;;;29.50;18.55;;;0.40;99.90;;;;;;5030807;28;20033;-65
2021/12/03 05:19:20;;;;;;;31.45;18.05;;;0.30;99.90;;;;;;5032334;28;20056;-65
2021/12/03 05:21:47;;;;;;;29.90;18.92;;;0.30;99.90;;;;;;5030078;28;20203;-66
2021/12/03 05:24:14;;;;;;;31.45;19.13;;;0.30;99.90;;;;;;5033244;28;20041;-65
2021/12/03 05:26:40;;;;;;;33.92;18.17;;;0.30;99.90;;;;;;5027714;28;20075;-65
2021/12/03 05:29:07;;;;;;;30.73;19.23;;;0.30;99.90;;;;;;5029261;28;20043;-65
2021/12/03 05:31:34;;;;;;;29.92;18.13;;;0.30;99.90;;;;;;5032840;28;20048;-65
2021/12/03 05:34:01;;;;;;;32.78;19.92;;;0.30;99.90;;;;;;5015553;28;20056;-65
2021/12/03 05:36:26;;;;;;;33.53;18.17;;;0.30;99.90;;;;;;5031206;28;20143;-65
2021/12/03 05:38:52;;;;;;;28.67;18.65;;;0.30;99.90;;;;;;5031141;28;20136;-65
2021/12/03 05:41:17;;;;;;;29.17;18.95;;;0.30;99.90;;;;;;5029901;28;20056;-65
2021/12/03 05:43:43;;;;;;;33.55;20.05;;;0.30;99.90;;;;;;5030839;28;20072;-65
2021/12/03 05:46:09;;;;;;;32.15;19.13;;;0.40;99.90;;;;;;5013265;28;20554;-66
2021/12/03 05:48:34;;;;;;;30.00;18.33;;;0.40;99.90;;;;;;5028220;28;20033;-65
2021/12/03 05:51:00;;;;;;;30.85;19.83;;;0.40;99.90;;;;;;5050415;28;20730;-66
2021/12/03 05:53:26;;;;;;;36.00;20.42;;;0.40;99.90;;;;;;5031531;28;20099;-65
2021/12/03 05:55:52;;;;;;;30.30;19.35;;;0.40;99.90;;;;;;5014260;28;20056;-65
2021/12/03 05:58:18;;;;;;;30.42;19.38;;;0.50;99.90;;;;;;5027860;28;20037;-66
2021/12/03 06:00:44;;;;;;;33.20;19.67;;;0.50;99.90;;;;;;5030297;28;20029;-65
2021/12/03 06:03:11;;;;;;;29.08;18.50;;;0.50;99.90;;;;;;5031284;28;20044;-65
2021/12/03 06:05:40;;;;;;;30.77;19.35;;;0.50;99.90;;;;;;5029829;28;20037;-65
2021/12/03 06:08:06;;;;;;;30.58;18.15;;;0.60;99.90;;;;;;5028569;28;20051;-65
2021/12/03 06:10:32;;;;;;;34.90;19.20;;;0.50;99.90;;;;;;5013801;28;20072;-65
2021/12/03 06:12:58;;;;;;;29.13;17.88;;;0.50;99.90;;;;;;5014133;28;20090;-65
2021/12/03 06:15:24;;;;;;;29.95;17.40;;;0.60;99.90;;;;;;5048088;28;20600;-65
2021/12/03 06:17:50;;;;;;;33.65;17.63;;;0.50;99.90;;;;;;5025220;28;20094;-65
2021/12/03 06:20:17;;;;;;;30.90;17.83;;;0.60;99.90;;;;;;5026373;28;20045;-65
2021/12/03 06:22:43;;;;;;;28.33;16.63;;;0.60;99.90;;;;;;5022897;28;20087;-65
2021/12/03 06:25:10;;;;;;;36.42;18.80;;;0.70;99.90;;;;;;5030983;28;20131;-66
2021/12/03 06:27:37;;;;;;;31.05;18.88;;;0.70;99.90;;;;;;5046680;28;20108;-66
2021/12/03 06:30:06;;;;;;;32.00;17.67;;;0.80;99.90;;;;;;5042991;28;20044;-65
2021/12/03 06:32:32;;;;;;;29.25;16.40;;;0.80;99.90;;;;;;5049854;28;20041;-66
2021/12/03 06:34:58;;;;;;;25.00;16.35;;;0.80;99.90;;;;;;5031889;28;20488;-65
2021/12/03 06:37:23;;;;;;;26.35;15.95;;;0.90;99.90;;;;;;5030452;28;20060;-66
2021/12/03 06:39:49;;;;;;;27.27;16.30;;;0.90;99.90;;;;;;5028101;28;20037;-65
2021/12/03 06:42:14;;;;;;;35.95;16.67;;;0.90;99.90;;;;;;5017747;28;20116;-65
2021/12/03 06:44:40;;;;;;;26.55;14.27;;;0.90;99.90;;;;;;5020995;28;20518;-65
2021/12/03 06:47:06;;;;;;;28.67;16.20;;;0.90;99.90;;;;;;5031943;28;20399;-65
2021/12/03 06:49:33;;;;;;;28.25;15.20;;;0.90;99.90;;;;;;5031591;28;20036;-65
2021/12/03 06:52:05;;;;;;;30.75;15.85;;;0.90;99.90;;;;;;5036920;28;20054;-65
2021/12/03 06:54:33;;;;;;;27.33;14.45;;;1.00;99.90;;;;;;5031679;28;20051;-65
2021/12/03 06:57:00;;;;;;;24.75;13.40;;;1.00;99.90;;;;;;5027414;28;20049;-66
2021/12/03 06:59:25;;;;;;;28.35;14.88;;;0.90;99.90;;;;;;5029952;28;20471;-65
2021/12/03 07:01:52;;;;;;;24.67;13.43;;;1.00;99.90;;;;;;5048175;28;20064;-65
2021/12/03 07:04:18;;;;;;;26.42;13.27;;;1.10;99.90;;;;;;5030434;28;20036;-65
2021/12/03 07:06:45;;;;;;;28.27;13.57;;;1.10;99.90;;;;;;5028196;28;20087;-65
2021/12/03 07:09:11;;;;;;;26.60;13.98;;;1.10;99.90;;;;;;5029494;28;20076;-66
2021/12/03 07:11:37;;;;;;;27.58;14.05;;;1.10;99.90;;;;;;5027665;28;20036;-65
2021/12/03 07:14:03;;;;;;;25.98;13.70;;;1.20;99.90;;;;;;5026610;28;20328;-66
2021/12/03 07:16:30;;;;;;;27.35;13.65;;;1.20;99.90;;;;;;5013498;28;20353;-65
2021/12/03 07:18:55;;;;;;;27.60;13.23;;;1.20;99.90;;;;;;5029014;28;20029;-65
2021/12/03 07:21:22;;;;;;;30.05;14.13;;;1.20;99.90;;;;;;5029787;28;20035;-65
2021/12/03 07:23:50;;;;;;;30.80;15.32;;;1.20;99.90;;;;;;5048147;28;20089;-64
2021/12/03 07:26:16;;;;;;;29.13;16.35;;;1.20;99.90;;;;;;5030737;28;20051;-64
2021/12/03 07:28:42;;;;;;;33.00;16.05;;;1.20;99.90;;;;;;5045998;28;20037;-66
2021/12/03 07:31:08;;;;;;;26.45;15.25;;;1.20;99.90;;;;;;5029243;28;20040;-64
2021/12/03 07:33:33;;;;;;;40.78;15.38;;;1.20;99.90;;;;;;5048009;28;20132;-64
2021/12/03 07:35:59;;;;;;;39.15;15.95;;;1.20;99.90;;;;;;5048232;28;20464;-64
2021/12/03 07:38:25;;;;;;;32.17;14.63;;;1.20;99.90;;;;;;5028314;28;20037;-64
2021/12/03 07:40:51;;;;;;;29.15;15.93;;;1.30;99.90;;;;;;5012905;28;20124;-65
2021/12/03 07:43:17;;;;;;;34.30;16.20;;;1.30;99.90;;;;;;5046075;28;20118;-65
2021/12/03 07:45:44;;;;;;;36.03;16.42;;;1.30;99.90;;;;;;5047126;28;20455;-65
2021/12/03 07:48:10;;;;;;;30.42;15.40;;;1.30;99.90;;;;;;5048349;28;20083;-65
2021/12/03 07:50:39;;;;;;;36.72;16.98;;;1.30;99.90;;;;;;5028091;28;20496;-65
2021/12/03 07:53:05;;;;;;;29.70;15.20;;;1.30;99.90;;;;;;5030537;28;20396;-65
2021/12/03 07:55:31;;;;;;;38.53;16.77;;;1.30;99.90;;;;;;5039391;28;20063;-65
2021/12/03 07:57:56;;;;;;;36.08;18.02;;;1.30;99.90;;;;;;5010524;28;20064;-66
2021/12/03 08:00:22;;;;;;;38.80;15.88;;;1.30;99.90;;;;;;5031744;28;20487;-65
2021/12/03 08:02:48;;;;;;;37.67;17.58;;;1.30;99.90;;;;;;5049028;28;20049;-65
2021/12/03 08:05:14;;;;;;;39.08;18.27;;;1.30;99.90;;;;;;5047038;28;20036;-66
2021/12/03 08:07:40;;;;;;;38.60;17.48;;;1.30;99.90;;;;;;5028100;28;20522;-66
2021/12/03 08:10:06;;;;;;;39.42;17.88;;;1.30;99.90;;;;;;5050146;28;20059;-66
2021/12/03 08:12:32;;;;;;;34.45;17.45;;;1.30;99.90;;;;;;5046766;28;20037;-66
2021/12/03 08:14:58;;;;;;;37.60;18.15;;;1.30;99.90;;;;;;5031287;28;20047;-67
2021/12/03 08:17:23;;;;;;;41.90;18.92;;;1.30;99.90;;;;;;5030955;28;20072;-66
2021/12/03 08:19:49;;;;;;;41.65;19.65;;;1.30;99.90;;;;;;5030547;28;20033;-67
2021/12/03 08:22:14;;;;;;;41.20;17.95;;;1.40;99.90;;;;;;5030604;28;20037;-67
2021/12/03 08:24:40;;;;;;;39.88;19.50;;;1.30;99.90;;;;;;5029594;28;20124;-66
2021/12/03 08:27:05;;;;;;;40.88;18.90;;;1.40;99.90;;;;;;5029796;28;20136;-66
2021/12/03 08:29:31;;;;;;;37.90;17.40;;;1.40;99.90;;;;;;5015900;28;20072;-66
2021/12/03 08:31:57;;;;;;;40.65;18.25;;;1.40;99.90;;;;;;5032246;28;20123;-63
2021/12/03 08:34:23;;;;;;;39.25;18.80;;;1.40;99.90;;;;;;5033840;28;20053;-64
2021/12/03 08:36:48;;;;;;;37.05;17.00;;;1.50;99.90;;;;;;5032817;28;20036;-63
2021/12/03 08:39:14;;;;;;;40.75;18.60;;;1.50;99.90;;;;;;5034750;28;20048;-62
2021/12/03 08:41:39;;;;;;;42.65;19.05;;;1.50;99.90;;;;;;5031635;28;20041;-63
2021/12/03 08:44:05;;;;;;;43.17;18.33;;;1.50;99.90;;;;;;5033615;28;20048;-66
2021/12/03 08:46:33;;;;;;;44.47;19.42;;;1.50;99.90;;;;;;5033295;28;20175;-67
2021/12/03 08:49:35;;;;;;;44.10;19.63;;;1.50;99.90;;;;;;5033929;28;20511;-65
2021/12/03 08:52:20;;;;;;;50.58;20.95;;;1.50;99.90;;;;;;5026208;28;20067;-66
2021/12/03 08:57:19;;;;;;;47.15;21.67;;;1.60;99.90;;;;;;5032943;28;20144;-65
2021/12/03 08:59:45;;;;;;;48.67;21.08;;;1.70;99.90;;;;;;5016032;28;20041;-66
2021/12/03 09:02:10;;;;;;;54.75;23.77;;;1.70;99.90;;;;;;5034068;28;20502;-66
2021/12/03 09:04:36;;;;;;;54.65;23.13;;;1.80;99.90;;;;;;5033185;28;20036;-65
2021/12/03 09:07:03;;;;;;;51.17;24.02;;;1.80;99.90;;;;;;5032120;28;20452;-66
2021/12/03 09:09:30;;;;;;;54.30;24.70;;;1.80;99.90;;;;;;5027734;28;20044;-66
2021/12/03 09:11:56;;;;;;;56.72;22.85;;;1.80;99.90;;;;;;5029267;28;20385;-66
2021/12/03 09:14:36;;;;;;;53.78;24.80;;;1.80;99.90;;;;;;5014348;28;20477;-67
2021/12/03 09:19:38;;;;;;;56.90;24.48;;;1.90;99.90;;;;;;5033847;28;20048;-68
2021/12/03 09:22:04;;;;;;;53.72;25.17;;;1.90;99.90;;;;;;5033093;28;20037;-65
2021/12/03 09:24:32;;;;;;;63.65;26.63;;;2.00;99.90;;;;;;5033832;28;20051;-66
2021/12/03 09:26:58;;;;;;;61.08;25.08;;;2.00;99.90;;;;;;5030715;28;20076;-68
2021/12/03 09:29:31;;;;;;;66.55;27.10;;;2.00;99.90;;;;;;5032972;28;20075;-67
2021/12/03 09:31:58;;;;;;;66.55;27.25;;;2.00;99.90;;;;;;5049111;28;20112;-67
2021/12/03 09:34:25;;;;;;;62.92;26.30;;;2.00;99.90;;;;;;5033017;28;20047;-66
2021/12/03 09:36:51;;;;;;;61.03;25.50;;;2.10;99.90;;;;;;5015769;28;20384;-65
2021/12/03 09:39:23;;;;;;;59.22;25.30;;;2.10;99.90;;;;;;5051599;28;20045;-66
2021/12/03 09:41:50;;;;;;;60.92;27.05;;;2.10;99.90;;;;;;5012823;28;20051;-66
2021/12/03 09:44:16;;;;;;;63.55;26.73;;;2.10;99.90;;;;;;5048279;28;20151;-66
2021/12/03 09:46:42;;;;;;;64.93;26.85;;;2.20;99.90;;;;;;5028342;28;20154;-67
2021/12/03 09:56:45;;;;;;;59.67;24.95;;;2.30;99.90;;;;;;5010643;28;20058;-66
2021/12/03 10:18:03;;;;;;;52.92;22.13;;;2.50;99.90;;;;;;5029981;28;20048;-67
2021/12/03 10:26:21;;;;;;;49.17;20.77;;;2.60;99.90;;;;;;5026358;28;20208;-67
2021/12/03 10:44:16;;;;;;;38.88;17.17;;;2.70;99.90;;;;;;5018499;28;20060;-67
2021/12/03 10:51:49;;;;;;;39.60;15.98;;;2.80;99.90;;;;;;5030617;28;20068;-67
2021/12/03 11:16:59;;;;;;;35.42;12.10;;;2.80;99.90;;;;;;5032242;28;20469;-68
2021/12/03 11:36:06;;;;;;;20.42;9.45;;;2.60;99.90;;;;;;5030014;28;20064;-66
2021/12/03 11:58:53;;;;;;;17.42;5.40;;;2.50;99.90;;;;;;5029072;28;20072;-68
2021/12/03 12:16:28;;;;;;;16.15;5.68;;;2.50;99.90;;;;;;5035326;28;20112;-67
2021/12/03 13:19:24;;;;;;;20.92;8.85;;;2.70;99.90;;;;;;5034492;28;20488;-69
2021/12/03 13:27:37;;;;;;;18.50;8.60;;;2.70;99.90;;;;;;5019730;28;20124;-68
2021/12/03 13:31:27;;;;;;;19.52;8.68;;;2.70;99.90;;;;;;5016063;28;20369;-68
2021/12/03 14:11:35;;;;;;;24.75;8.13;;;2.80;99.90;;;;;;5032437;28;20049;-67
2021/12/03 14:46:04;;;;;;;19.80;8.20;;;3.00;99.90;;;;;;5031823;28;20045;-68
2021/12/03 14:56:16;;;;;;;14.75;8.02;;;3.10;99.90;;;;;;5030149;28;20057;-67
2021/12/03 14:58:51;;;;;;;20.33;8.38;;;3.10;99.90;;;;;;5029303;28;20032;-67
2021/12/03 15:04:50;;;;;;;16.83;8.57;;;3.20;99.90;;;;;;5032038;28;20040;-69
2021/12/03 15:06:53;;;;;;;16.65;8.15;;;3.20;99.90;;;;;;5020296;28;20096;-68
2021/12/03 15:09:23;;;;;;;14.75;7.43;;;3.20;99.90;;;;;;5032143;28;20056;-70
2021/12/03 15:16:09;;;;;;;15.60;7.68;;;3.20;99.90;;;;;;5031444;28;20090;-69
2021/12/03 15:20:09;;;;;;;21.27;9.93;;;3.30;99.90;;;;;;5032324;28;20041;-68
2021/12/03 15:52:25;;;;;;;16.05;9.43;;;3.40;99.90;;;;;;5034959;28;20060;-66
2021/12/03 15:57:17;;;;;;;16.15;9.70;;;3.50;99.90;;;;;;5032370;28;20053;-68
2021/12/03 16:10:38;;;;;;;17.80;10.48;;;3.50;99.90;;;;;;5035697;28;20147;-67
2021/12/03 16:16:19;;;;;;;21.15;11.15;;;3.50;99.90;;;;;;5020950;28;20131;-67
2021/12/03 16:53:25;;;;;;;27.90;13.68;;;3.60;99.90;;;;;;5034099;28;20404;-66
2021/12/03 16:58:37;;;;;;;26.65;14.50;;;3.60;99.90;;;;;;5025534;28;20481;-68
2021/12/03 17:01:14;;;;;;;22.27;14.32;;;3.60;99.90;;;;;;5032872;28;20044;-66
2021/12/03 17:03:49;;;;;;;24.50;13.85;;;3.60;99.90;;;;;;5037009;28;20036;-67
2021/12/03 17:30:26;;;;;;;32.30;16.80;;;3.70;99.90;;;;;;4995040;28;20115;-68
2021/12/03 17:44:34;;;;;;;34.03;17.67;;;3.70;99.90;;;;;;5031825;28;20048;-66
2021/12/03 17:52:07;;;;;;;36.33;18.48;;;3.70;99.90;;;;;;5031453;28;20048;-67
2021/12/03 17:54:55;;;;;;;34.00;18.30;;;3.70;99.90;;;;;;5031695;28;20531;-67
2021/12/03 17:57:37;;;;;;;38.50;20.20;;;3.70;99.90;;;;;;5012294;28;20045;-68
2021/12/03 18:00:11;;;;;;;35.42;18.60;;;3.80;99.90;;;;;;5012502;28;20049;-66
2021/12/03 18:02:42;;;;;;;33.72;18.27;;;3.80;99.90;;;;;;5028898;28;20136;-65
2021/12/03 18:08:10;;;;;;;34.75;18.95;;;3.70;99.90;;;;;;5030628;28;20045;-66
2021/12/03 18:10:55;;;;;;;32.25;17.92;;;3.70;99.90;;;;;;5031261;28;20408;-67
2021/12/03 18:43:44;;;;;;;39.30;18.98;;;3.90;99.90;;;;;;5030072;28;20110;-66
2021/12/03 18:56:32;;;;;;;37.38;19.15;;;3.90;99.90;;;;;;5030984;28;20052;-67
2021/12/03 18:59:04;;;;;;;43.22;21.13;;;3.90;99.90;;;;;;5046034;28;20688;-65
2021/12/03 19:01:31;;;;;;;40.08;20.20;;;4.00;99.90;;;;;;5023833;28;20398;-67
2021/12/03 19:06:30;;;;;;;40.55;19.88;;;3.90;99.90;;;;;;5025459;28;20361;-67
2021/12/03 19:09:42;;;;;;;44.45;22.15;;;3.90;99.90;;;;;;5023149;28;20033;-67
2021/12/03 19:11:53;;;;;;;45.75;21.67;;;4.00;99.90;;;;;;5015300;28;20140;-65
2021/12/03 19:14:20;;;;;;;45.10;21.25;;;4.00;99.90;;;;;;5027078;28;20037;-66
2021/12/03 19:16:46;;;;;;;46.10;22.27;;;4.00;99.90;;;;;;5025394;28;20033;-65
2021/12/03 19:19:15;;;;;;;45.15;21.55;;;4.00;99.90;;;;;;5026470;28;20530;-66
2021/12/03 19:21:43;;;;;;;44.58;21.40;;;4.00;99.90;;;;;;5026043;28;20041;-65
2021/12/03 19:24:13;;;;;;;50.78;22.63;;;4.00;99.90;;;;;;5026788;28;21116;-66
2021/12/03 19:26:45;;;;;;;44.13;22.55;;;4.00;99.90;;;;;;5016654;28;20040;-66
2021/12/03 19:29:15;;;;;;;51.08;22.75;;;4.00;99.90;;;;;;4996593;28;20044;-67
2021/12/03 19:31:42;;;;;;;50.75;22.63;;;4.00;99.90;;;;;;5016636;28;20033;-67
2021/12/03 19:34:09;;;;;;;50.28;22.40;;;4.00;99.90;;;;;;5000922;28;20057;-66
2021/12/03 19:36:40;;;;;;;57.78;23.70;;;4.10;99.90;;;;;;5019241;28;20426;-67
2021/12/03 19:39:07;;;;;;;46.53;22.33;;;4.10;99.90;;;;;;5028932;28;20372;-66
2021/12/03 19:44:01;;;;;;;51.85;21.60;;;4.10;99.90;;;;;;5030156;28;20092;-66
2021/12/03 19:46:39;;;;;;;52.85;24.52;;;4.10;99.90;;;;;;5014817;28;20038;-66
2021/12/03 19:49:19;;;;;;;51.47;22.80;;;4.10;99.90;;;;;;4995528;28;20381;-65
2021/12/03 19:51:51;;;;;;;;;;;4.10;99.90;;;;;;5012026;28;20053;-65
2021/12/03 19:54:18;;;;;;;46.53;21.13;;;4.10;99.90;;;;;;5013185;28;20406;-66
2021/12/03 19:56:44;;;;;;;50.67;21.83;;;4.10;99.90;;;;;;5024441;28;20460;-66
2021/12/03 19:59:11;;;;;;;55.55;23.50;;;4.10;99.90;;;;;;5030261;28;20124;-66
2021/12/03 20:01:37;;;;;;;51.72;23.10;;;4.10;99.90;;;;;;5031807;28;20399;-66
2021/12/03 20:04:05;;;;;;;55.65;23.92;;;4.10;99.90;;;;;;5031517;28;20029;-66
2021/12/03 20:06:31;;;;;;;51.00;21.98;;;4.10;99.90;;;;;;5030905;28;20049;-67
2021/12/03 20:09:00;;;;;;;45.80;20.38;;;4.10;99.90;;;;;;5031255;28;20037;-65
2021/12/03 20:11:28;;;;;;;49.63;21.23;;;4.10;99.90;;;;;;5030370;28;20037;-67
2021/12/03 20:13:59;;;;;;;47.60;21.85;;;4.10;99.90;;;;;;5028740;28;20041;-66
2021/12/03 20:16:39;;;;;;;51.72;22.75;;;4.10;99.90;;;;;;5030605;28;20507;-66
2021/12/03 20:19:10;;;;;;;46.33;21.27;;;4.20;99.90;;;;;;5032229;28;20037;-66
2021/12/03 20:21:39;;;;;;;50.75;20.50;;;4.20;99.90;;;;;;5034559;28;20284;-66
2021/12/03 20:26:50;;;;;;;47.20;20.98;;;4.20;99.90;;;;;;5028926;28;20362;-66